sensor_id;sensor_type;location;lat;lon;timestamp;P1;durP1;ratioP1;P2;durP2;ratioP2
37847;SDS011;23688;33.130;-117.188;2023-08-17T00:00:59;11.40;;;5.28;;
37847;SDS011;23688;33.130;-117.188;2023-08-17T00:03:25;10.30;;;5.50;;
37847;SDS011;23688;33.130;-117.188;2023-08-17T00:05:52;7.93;;;5.13;;
37847;SDS011;23688;33.130;-117.188;2023-08-17T00:08:18;11.68;;;5.80;;
37847;SDS011;23688;33.130;-117.188;2023-08-17T00:10:44;11.82;;;5.95;;
37847;SDS011;23688;33.130;-117.188;2023-08-17T00:13:12;14.50;;;5.68;;
37847;SDS011;23688;33.130;-117.188;2023-08-17T00:15:39;9.25;;;4.72;;
37847;SDS011;23688;33.130;-117.188;2023-08-17T00:18:06;12.13;;;5.70;;
37847;SDS011;23688;33.130;-117.188;2023-08-17T00:20:33;11.30;;;5.53;;
37847;SDS011;23688;33.130;-117.188;2023-08-17T00:22:59;11.75;;;5.40;;
37847;SDS011;23688;33.130;-117.188;2023-08-17T00:25:26;11.07;;;5.97;;
37847;SDS011;23688;33.130;-117.188;2023-08-17T00:27:52;11.10;;;6.38;;
37847;SDS011;23688;33.130;-117.188;2023-08-17T00:30:18;11.05;;;6.00;;
37847;SDS011;23688;33.130;-117.188;2023-08-17T00:32:44;8.52;;;5.35;;
37847;SDS011;23688;33.130;-117.188;2023-08-17T00:35:10;12.30;;;5.53;;
37847;SDS011;23688;33.130;-117.188;2023-08-17T00:37:37;15.02;;;5.20;;
37847;SDS011;23688;33.130;-117.188;2023-08-17T00:40:03;11.82;;;5.35;;
37847;SDS011;23688;33.130;-117.188;2023-08-17T00:42:32;10.52;;;4.85;;
37847;SDS011;23688;33.130;-117.188;2023-08-17T00:44:59;6.90;;;4.38;;
37847;SDS011;23688;33.130;-117.188;2023-08-17T00:47:25;9.63;;;4.45;;
37847;SDS011;23688;33.130;-117.188;2023-08-17T00:49:52;8.48;;;4.72;;
37847;SDS011;23688;33.130;-117.188;2023-08-17T00:52:19;11.90;;;5.57;;
37847;SDS011;23688;33.130;-117.188;2023-08-17T00:54:45;6.90;;;4.68;;
37847;SDS011;23688;33.130;-117.188;2023-08-17T00:57:11;9.32;;;4.10;;
37847;SDS011;23688;33.130;-117.188;2023-08-17T00:59:38;8.88;;;4.25;;
37847;SDS011;23688;33.130;-117.188;2023-08-17T01:02:04;11.52;;;5.07;;
37847;SDS011;23688;33.130;-117.188;2023-08-17T01:04:31;7.22;;;3.97;;
37847;SDS011;23688;33.130;-117.188;2023-08-17T01:06:57;7.10;;;4.30;;
37847;SDS011;23688;33.130;-117.188;2023-08-17T01:09:24;9.80;;;4.10;;
37847;SDS011;23688;33.130;-117.188;2023-08-17T01:11:57;9.25;;;4.50;;
37847;SDS011;23688;33.130;-117.188;2023-08-17T01:14:27;19.30;;;5.50;;
37847;SDS011;23688;33.130;-117.188;2023-08-17T01:17:12;12.45;;;3.90;;
37847;SDS011;23688;33.130;-117.188;2023-08-17T01:19:47;11.52;;;3.95;;
37847;SDS011;23688;33.130;-117.188;2023-08-17T01:22:17;9.05;;;4.03;;
37847;SDS011;23688;33.130;-117.188;2023-08-17T01:24:46;8.48;;;4.00;;
37847;SDS011;23688;33.130;-117.188;2023-08-17T01:27:13;8.10;;;4.25;;
37847;SDS011;23688;33.130;-117.188;2023-08-17T01:29:39;10.70;;;4.80;;
37847;SDS011;23688;33.130;-117.188;2023-08-17T01:32:13;8.10;;;4.30;;
37847;SDS011;23688;33.130;-117.188;2023-08-17T01:37:18;9.75;;;4.50;;
37847;SDS011;23688;33.130;-117.188;2023-08-17T01:39:45;10.55;;;4.45;;
37847;SDS011;23688;33.130;-117.188;2023-08-17T01:42:17;9.60;;;4.28;;
37847;SDS011;23688;33.130;-117.188;2023-08-17T01:44:45;10.27;;;4.30;;
37847;SDS011;23688;33.130;-117.188;2023-08-17T01:47:12;8.55;;;4.95;;
37847;SDS011;23688;33.130;-117.188;2023-08-17T01:49:38;10.88;;;5.22;;
37847;SDS011;23688;33.130;-117.188;2023-08-17T01:52:05;13.68;;;5.30;;
37847;SDS011;23688;33.130;-117.188;2023-08-17T01:54:31;7.35;;;4.40;;
37847;SDS011;23688;33.130;-117.188;2023-08-17T01:56:58;11.15;;;5.95;;
37847;SDS011;23688;33.130;-117.188;2023-08-17T01:59:24;10.30;;;4.85;;
37847;SDS011;23688;33.130;-117.188;2023-08-17T02:01:50;12.32;;;5.07;;
37847;SDS011;23688;33.130;-117.188;2023-08-17T02:04:16;8.88;;;5.43;;
37847;SDS011;23688;33.130;-117.188;2023-08-17T02:06:42;12.45;;;5.47;;
37847;SDS011;23688;33.130;-117.188;2023-08-17T02:09:09;9.48;;;4.93;;
37847;SDS011;23688;33.130;-117.188;2023-08-17T02:11:35;7.78;;;5.03;;
37847;SDS011;23688;33.130;-117.188;2023-08-17T02:14:01;10.98;;;5.20;;
37847;SDS011;23688;33.130;-117.188;2023-08-17T02:16:28;23.30;;;6.13;;
37847;SDS011;23688;33.130;-117.188;2023-08-17T02:18:54;10.18;;;5.63;;
37847;SDS011;23688;33.130;-117.188;2023-08-17T02:21:20;11.95;;;6.38;;
37847;SDS011;23688;33.130;-117.188;2023-08-17T02:23:46;16.35;;;6.45;;
37847;SDS011;23688;33.130;-117.188;2023-08-17T02:26:13;14.73;;;6.88;;
37847;SDS011;23688;33.130;-117.188;2023-08-17T02:28:39;13.52;;;6.05;;
37847;SDS011;23688;33.130;-117.188;2023-08-17T02:31:06;15.75;;;7.80;;
37847;SDS011;23688;33.130;-117.188;2023-08-17T02:33:32;13.50;;;7.20;;
37847;SDS011;23688;33.130;-117.188;2023-08-17T02:36:00;15.65;;;7.63;;
37847;SDS011;23688;33.130;-117.188;2023-08-17T02:38:28;10.77;;;6.47;;
37847;SDS011;23688;33.130;-117.188;2023-08-17T02:40:54;14.40;;;8.00;;
37847;SDS011;23688;33.130;-117.188;2023-08-17T02:43:21;15.88;;;7.13;;
37847;SDS011;23688;33.130;-117.188;2023-08-17T02:45:47;19.77;;;8.43;;
37847;SDS011;23688;33.130;-117.188;2023-08-17T02:48:14;23.38;;;9.25;;
37847;SDS011;23688;33.130;-117.188;2023-08-17T02:50:40;20.05;;;7.90;;
37847;SDS011;23688;33.130;-117.188;2023-08-17T02:53:06;18.83;;;7.88;;
37847;SDS011;23688;33.130;-117.188;2023-08-17T02:55:32;20.25;;;8.88;;
37847;SDS011;23688;33.130;-117.188;2023-08-17T02:58:02;15.90;;;7.60;;
37847;SDS011;23688;33.130;-117.188;2023-08-17T03:00:28;14.77;;;7.72;;
37847;SDS011;23688;33.130;-117.188;2023-08-17T03:02:55;17.58;;;8.70;;
37847;SDS011;23688;33.130;-117.188;2023-08-17T03:05:21;18.52;;;8.48;;
37847;SDS011;23688;33.130;-117.188;2023-08-17T03:07:47;12.95;;;7.97;;
37847;SDS011;23688;33.130;-117.188;2023-08-17T03:10:13;22.60;;;10.00;;
37847;SDS011;23688;33.130;-117.188;2023-08-17T03:12:40;20.08;;;8.88;;
37847;SDS011;23688;33.130;-117.188;2023-08-17T03:15:06;21.58;;;8.93;;
37847;SDS011;23688;33.130;-117.188;2023-08-17T03:17:34;15.63;;;7.97;;
37847;SDS011;23688;33.130;-117.188;2023-08-17T03:20:01;21.73;;;9.18;;
37847;SDS011;23688;33.130;-117.188;2023-08-17T03:22:31;19.50;;;8.65;;
37847;SDS011;23688;33.130;-117.188;2023-08-17T03:24:57;31.92;;;9.45;;
37847;SDS011;23688;33.130;-117.188;2023-08-17T03:27:23;21.92;;;8.52;;
37847;SDS011;23688;33.130;-117.188;2023-08-17T03:29:50;19.10;;;9.55;;
37847;SDS011;23688;33.130;-117.188;2023-08-17T03:32:17;14.70;;;8.27;;
37847;SDS011;23688;33.130;-117.188;2023-08-17T03:34:44;19.63;;;9.15;;
37847;SDS011;23688;33.130;-117.188;2023-08-17T03:37:12;24.63;;;9.60;;
37847;SDS011;23688;33.130;-117.188;2023-08-17T03:39:38;19.90;;;9.05;;
37847;SDS011;23688;33.130;-117.188;2023-08-17T03:42:04;13.77;;;8.27;;
37847;SDS011;23688;33.130;-117.188;2023-08-17T03:44:31;20.15;;;8.80;;
37847;SDS011;23688;33.130;-117.188;2023-08-17T03:46:59;18.63;;;8.25;;
37847;SDS011;23688;33.130;-117.188;2023-08-17T03:49:25;20.50;;;8.30;;
37847;SDS011;23688;33.130;-117.188;2023-08-17T03:51:53;20.73;;;9.10;;
37847;SDS011;23688;33.130;-117.188;2023-08-17T03:54:20;14.60;;;7.55;;
37847;SDS011;23688;33.130;-117.188;2023-08-17T03:56:47;13.07;;;8.38;;
37847;SDS011;23688;33.130;-117.188;2023-08-17T03:59:14;16.90;;;8.43;;
37847;SDS011;23688;33.130;-117.188;2023-08-17T04:01:41;20.35;;;8.20;;
37847;SDS011;23688;33.130;-117.188;2023-08-17T04:04:07;14.43;;;8.90;;
37847;SDS011;23688;33.130;-117.188;2023-08-17T04:06:34;15.10;;;8.05;;
37847;SDS011;23688;33.130;-117.188;2023-08-17T04:09:01;19.60;;;9.07;;
37847;SDS011;23688;33.130;-117.188;2023-08-17T04:11:27;15.18;;;7.68;;
37847;SDS011;23688;33.130;-117.188;2023-08-17T04:13:53;17.52;;;9.27;;
37847;SDS011;23688;33.130;-117.188;2023-08-17T04:16:20;18.00;;;7.15;;
37847;SDS011;23688;33.130;-117.188;2023-08-17T04:18:46;19.00;;;7.47;;
37847;SDS011;23688;33.130;-117.188;2023-08-17T04:21:12;16.42;;;7.88;;
37847;SDS011;23688;33.130;-117.188;2023-08-17T04:23:38;21.38;;;9.18;;
37847;SDS011;23688;33.130;-117.188;2023-08-17T04:26:07;21.02;;;8.27;;
37847;SDS011;23688;33.130;-117.188;2023-08-17T04:28:33;16.70;;;8.48;;
37847;SDS011;23688;33.130;-117.188;2023-08-17T04:30:59;17.25;;;8.50;;
37847;SDS011;23688;33.130;-117.188;2023-08-17T04:33:25;17.38;;;8.38;;
37847;SDS011;23688;33.130;-117.188;2023-08-17T04:35:52;19.23;;;8.18;;
37847;SDS011;23688;33.130;-117.188;2023-08-17T04:38:18;16.95;;;7.75;;
37847;SDS011;23688;33.130;-117.188;2023-08-17T04:40:44;17.38;;;8.77;;
37847;SDS011;23688;33.130;-117.188;2023-08-17T04:43:11;17.92;;;8.13;;
37847;SDS011;23688;33.130;-117.188;2023-08-17T04:45:37;17.52;;;8.15;;
37847;SDS011;23688;33.130;-117.188;2023-08-17T04:48:04;12.00;;;7.80;;
37847;SDS011;23688;33.130;-117.188;2023-08-17T04:50:31;17.25;;;9.05;;
37847;SDS011;23688;33.130;-117.188;2023-08-17T04:52:57;25.20;;;8.77;;
37847;SDS011;23688;33.130;-117.188;2023-08-17T04:55:23;17.02;;;8.10;;
37847;SDS011;23688;33.130;-117.188;2023-08-17T04:57:53;15.45;;;8.20;;
37847;SDS011;23688;33.130;-117.188;2023-08-17T05:00:19;13.13;;;8.23;;
37847;SDS011;23688;33.130;-117.188;2023-08-17T05:02:50;14.60;;;8.10;;
37847;SDS011;23688;33.130;-117.188;2023-08-17T05:05:17;20.48;;;8.75;;
37847;SDS011;23688;33.130;-117.188;2023-08-17T05:07:43;22.83;;;8.10;;
37847;SDS011;23688;33.130;-117.188;2023-08-17T05:10:09;15.48;;;8.73;;
37847;SDS011;23688;33.130;-117.188;2023-08-17T05:12:35;20.35;;;7.90;;
37847;SDS011;23688;33.130;-117.188;2023-08-17T05:15:02;16.48;;;8.30;;
37847;SDS011;23688;33.130;-117.188;2023-08-17T05:17:29;15.85;;;8.02;;
37847;SDS011;23688;33.130;-117.188;2023-08-17T05:19:55;19.08;;;8.45;;
37847;SDS011;23688;33.130;-117.188;2023-08-17T05:22:21;13.85;;;7.95;;
37847;SDS011;23688;33.130;-117.188;2023-08-17T05:24:48;19.90;;;8.02;;
37847;SDS011;23688;33.130;-117.188;2023-08-17T05:27:14;16.65;;;7.65;;
37847;SDS011;23688;33.130;-117.188;2023-08-17T05:29:40;17.75;;;7.55;;
37847;SDS011;23688;33.130;-117.188;2023-08-17T05:32:06;16.63;;;7.25;;
37847;SDS011;23688;33.130;-117.188;2023-08-17T05:34:33;19.70;;;7.40;;
37847;SDS011;23688;33.130;-117.188;2023-08-17T05:36:59;16.70;;;7.25;;
37847;SDS011;23688;33.130;-117.188;2023-08-17T05:39:25;21.95;;;8.07;;
37847;SDS011;23688;33.130;-117.188;2023-08-17T05:41:52;15.93;;;6.95;;
37847;SDS011;23688;33.130;-117.188;2023-08-17T05:44:18;21.15;;;7.22;;
37847;SDS011;23688;33.130;-117.188;2023-08-17T05:46:44;15.80;;;7.07;;
37847;SDS011;23688;33.130;-117.188;2023-08-17T05:49:10;18.17;;;7.90;;
37847;SDS011;23688;33.130;-117.188;2023-08-17T05:51:37;19.55;;;8.05;;
37847;SDS011;23688;33.130;-117.188;2023-08-17T05:54:03;16.52;;;8.23;;
37847;SDS011;23688;33.130;-117.188;2023-08-17T05:56:30;14.48;;;8.00;;
37847;SDS011;23688;33.130;-117.188;2023-08-17T05:59:00;19.05;;;8.02;;
37847;SDS011;23688;33.130;-117.188;2023-08-17T06:01:26;18.75;;;7.85;;
37847;SDS011;23688;33.130;-117.188;2023-08-17T06:03:53;19.30;;;7.38;;
37847;SDS011;23688;33.130;-117.188;2023-08-17T06:06:19;19.48;;;8.40;;
37847;SDS011;23688;33.130;-117.188;2023-08-17T06:08:47;21.30;;;6.63;;
37847;SDS011;23688;33.130;-117.188;2023-08-17T06:11:13;17.83;;;7.53;;
37847;SDS011;23688;33.130;-117.188;2023-08-17T06:13:39;17.83;;;7.57;;
37847;SDS011;23688;33.130;-117.188;2023-08-17T06:16:07;20.58;;;7.60;;
37847;SDS011;23688;33.130;-117.188;2023-08-17T06:18:33;17.63;;;7.35;;
37847;SDS011;23688;33.130;-117.188;2023-08-17T06:20:59;22.27;;;7.75;;
37847;SDS011;23688;33.130;-117.188;2023-08-17T06:23:27;19.25;;;7.03;;
37847;SDS011;23688;33.130;-117.188;2023-08-17T06:25:57;23.52;;;7.82;;
37847;SDS011;23688;33.130;-117.188;2023-08-17T06:28:27;17.88;;;7.53;;
37847;SDS011;23688;33.130;-117.188;2023-08-17T06:30:56;19.45;;;7.65;;
37847;SDS011;23688;33.130;-117.188;2023-08-17T06:33:22;14.32;;;7.18;;
37847;SDS011;23688;33.130;-117.188;2023-08-17T06:35:49;17.67;;;8.02;;
37847;SDS011;23688;33.130;-117.188;2023-08-17T06:38:15;15.68;;;7.93;;
37847;SDS011;23688;33.130;-117.188;2023-08-17T06:40:45;23.25;;;8.25;;
37847;SDS011;23688;33.130;-117.188;2023-08-17T06:43:12;18.58;;;8.18;;
37847;SDS011;23688;33.130;-117.188;2023-08-17T06:45:39;14.57;;;7.85;;
37847;SDS011;23688;33.130;-117.188;2023-08-17T06:48:06;15.85;;;7.28;;
37847;SDS011;23688;33.130;-117.188;2023-08-17T06:50:32;20.73;;;7.63;;
37847;SDS011;23688;33.130;-117.188;2023-08-17T06:52:59;18.35;;;8.18;;
37847;SDS011;23688;33.130;-117.188;2023-08-17T06:55:26;18.60;;;8.60;;
37847;SDS011;23688;33.130;-117.188;2023-08-17T06:57:53;19.05;;;8.20;;
37847;SDS011;23688;33.130;-117.188;2023-08-17T07:00:20;16.92;;;8.52;;
37847;SDS011;23688;33.130;-117.188;2023-08-17T07:02:47;25.65;;;8.90;;
37847;SDS011;23688;33.130;-117.188;2023-08-17T07:05:16;21.90;;;9.27;;
37847;SDS011;23688;33.130;-117.188;2023-08-17T07:07:43;25.20;;;10.40;;
37847;SDS011;23688;33.130;-117.188;2023-08-17T07:10:10;36.05;;;9.45;;
37847;SDS011;23688;33.130;-117.188;2023-08-17T07:12:37;22.08;;;9.65;;
37847;SDS011;23688;33.130;-117.188;2023-08-17T07:15:04;26.20;;;11.35;;
37847;SDS011;23688;33.130;-117.188;2023-08-17T07:17:31;28.88;;;11.40;;
37847;SDS011;23688;33.130;-117.188;2023-08-17T07:19:59;40.40;;;14.02;;
37847;SDS011;23688;33.130;-117.188;2023-08-17T07:22:27;34.60;;;13.23;;
37847;SDS011;23688;33.130;-117.188;2023-08-17T07:24:53;35.53;;;13.98;;
37847;SDS011;23688;33.130;-117.188;2023-08-17T07:27:20;42.13;;;15.85;;
37847;SDS011;23688;33.130;-117.188;2023-08-17T07:29:46;36.53;;;16.40;;
37847;SDS011;23688;33.130;-117.188;2023-08-17T07:32:12;37.10;;;16.58;;
37847;SDS011;23688;33.130;-117.188;2023-08-17T07:34:38;40.65;;;15.85;;
37847;SDS011;23688;33.130;-117.188;2023-08-17T07:37:05;34.42;;;15.30;;
37847;SDS011;23688;33.130;-117.188;2023-08-17T07:39:31;45.42;;;16.92;;
37847;SDS011;23688;33.130;-117.188;2023-08-17T07:41:58;34.00;;;18.33;;
37847;SDS011;23688;33.130;-117.188;2023-08-17T07:44:24;40.92;;;16.70;;
37847;SDS011;23688;33.130;-117.188;2023-08-17T07:46:51;40.60;;;18.15;;
37847;SDS011;23688;33.130;-117.188;2023-08-17T07:49:17;39.33;;;16.27;;
37847;SDS011;23688;33.130;-117.188;2023-08-17T07:51:44;37.92;;;17.52;;
37847;SDS011;23688;33.130;-117.188;2023-08-17T07:54:10;43.67;;;17.58;;
37847;SDS011;23688;33.130;-117.188;2023-08-17T07:56:36;45.83;;;17.67;;
37847;SDS011;23688;33.130;-117.188;2023-08-17T07:59:03;41.88;;;17.42;;
37847;SDS011;23688;33.130;-117.188;2023-08-17T08:01:29;40.28;;;16.48;;
37847;SDS011;23688;33.130;-117.188;2023-08-17T08:03:55;32.58;;;15.80;;
37847;SDS011;23688;33.130;-117.188;2023-08-17T08:06:21;35.53;;;16.25;;
37847;SDS011;23688;33.130;-117.188;2023-08-17T08:08:48;33.63;;;15.27;;
37847;SDS011;23688;33.130;-117.188;2023-08-17T08:11:14;29.77;;;14.27;;
37847;SDS011;23688;33.130;-117.188;2023-08-17T08:13:40;33.65;;;16.15;;
37847;SDS011;23688;33.130;-117.188;2023-08-17T08:16:07;39.55;;;16.50;;
37847;SDS011;23688;33.130;-117.188;2023-08-17T08:18:33;35.30;;;15.07;;
37847;SDS011;23688;33.130;-117.188;2023-08-17T08:20:59;33.25;;;15.60;;
37847;SDS011;23688;33.130;-117.188;2023-08-17T08:23:25;33.30;;;15.15;;
37847;SDS011;23688;33.130;-117.188;2023-08-17T08:25:52;36.05;;;13.77;;
37847;SDS011;23688;33.130;-117.188;2023-08-17T08:28:18;29.73;;;15.15;;
37847;SDS011;23688;33.130;-117.188;2023-08-17T08:30:45;44.90;;;14.60;;
37847;SDS011;23688;33.130;-117.188;2023-08-17T08:33:11;40.15;;;16.17;;
37847;SDS011;23688;33.130;-117.188;2023-08-17T08:35:37;41.92;;;17.15;;
37847;SDS011;23688;33.130;-117.188;2023-08-17T08:38:04;43.30;;;18.52;;
37847;SDS011;23688;33.130;-117.188;2023-08-17T08:40:30;36.22;;;15.88;;
37847;SDS011;23688;33.130;-117.188;2023-08-17T08:42:57;44.30;;;16.38;;
37847;SDS011;23688;33.130;-117.188;2023-08-17T08:45:24;29.58;;;15.02;;
37847;SDS011;23688;33.130;-117.188;2023-08-17T08:47:55;39.97;;;15.27;;
37847;SDS011;23688;33.130;-117.188;2023-08-17T08:50:23;35.22;;;15.32;;
37847;SDS011;23688;33.130;-117.188;2023-08-17T08:52:59;39.65;;;17.90;;
37847;SDS011;23688;33.130;-117.188;2023-08-17T08:55:29;33.78;;;16.05;;
37847;SDS011;23688;33.130;-117.188;2023-08-17T08:57:59;37.65;;;15.30;;
37847;SDS011;23688;33.130;-117.188;2023-08-17T09:00:26;35.10;;;14.02;;
37847;SDS011;23688;33.130;-117.188;2023-08-17T09:02:53;45.42;;;17.63;;
37847;SDS011;23688;33.130;-117.188;2023-08-17T09:05:20;35.85;;;16.83;;
37847;SDS011;23688;33.130;-117.188;2023-08-17T09:07:50;43.22;;;17.38;;
37847;SDS011;23688;33.130;-117.188;2023-08-17T09:10:18;29.85;;;16.52;;
37847;SDS011;23688;33.130;-117.188;2023-08-17T09:12:45;27.25;;;14.20;;
37847;SDS011;23688;33.130;-117.188;2023-08-17T09:15:15;38.38;;;16.70;;
37847;SDS011;23688;33.130;-117.188;2023-08-17T09:17:42;41.22;;;15.15;;
37847;SDS011;23688;33.130;-117.188;2023-08-17T09:20:09;39.93;;;14.40;;
37847;SDS011;23688;33.130;-117.188;2023-08-17T09:22:37;35.80;;;17.42;;
37847;SDS011;23688;33.130;-117.188;2023-08-17T09:25:05;31.55;;;14.70;;
37847;SDS011;23688;33.130;-117.188;2023-08-17T09:27:32;28.70;;;14.80;;
37847;SDS011;23688;33.130;-117.188;2023-08-17T09:30:05;33.22;;;15.48;;
37847;SDS011;23688;33.130;-117.188;2023-08-17T09:32:34;41.05;;;17.08;;
37847;SDS011;23688;33.130;-117.188;2023-08-17T09:35:01;34.63;;;16.15;;
37847;SDS011;23688;33.130;-117.188;2023-08-17T09:39:55;34.42;;;17.15;;
37847;SDS011;23688;33.130;-117.188;2023-08-17T09:42:22;35.47;;;16.63;;
37847;SDS011;23688;33.130;-117.188;2023-08-17T09:44:51;35.30;;;16.10;;
37847;SDS011;23688;33.130;-117.188;2023-08-17T09:47:18;27.27;;;14.23;;
37847;SDS011;23688;33.130;-117.188;2023-08-17T09:49:48;31.48;;;14.48;;
37847;SDS011;23688;33.130;-117.188;2023-08-17T09:52:18;32.95;;;16.45;;
37847;SDS011;23688;33.130;-117.188;2023-08-17T09:54:45;34.13;;;15.82;;
37847;SDS011;23688;33.130;-117.188;2023-08-17T09:57:13;27.70;;;14.95;;
37847;SDS011;23688;33.130;-117.188;2023-08-17T09:59:40;38.30;;;16.75;;
37847;SDS011;23688;33.130;-117.188;2023-08-17T10:02:27;39.92;;;17.73;;
37847;SDS011;23688;33.130;-117.188;2023-08-17T10:04:54;27.52;;;14.45;;
37847;SDS011;23688;33.130;-117.188;2023-08-17T10:07:24;30.73;;;14.25;;
37847;SDS011;23688;33.130;-117.188;2023-08-17T10:10:05;37.47;;;16.77;;
37847;SDS011;23688;33.130;-117.188;2023-08-17T10:12:41;33.28;;;15.25;;
37847;SDS011;23688;33.130;-117.188;2023-08-17T10:15:13;26.52;;;14.77;;
37847;SDS011;23688;33.130;-117.188;2023-08-17T10:17:45;31.73;;;14.38;;
37847;SDS011;23688;33.130;-117.188;2023-08-17T10:20:22;35.25;;;15.90;;
37847;SDS011;23688;33.130;-117.188;2023-08-17T10:22:54;37.55;;;17.08;;
37847;SDS011;23688;33.130;-117.188;2023-08-17T10:25:28;40.75;;;15.90;;
37847;SDS011;23688;33.130;-117.188;2023-08-17T10:27:55;36.67;;;15.00;;
37847;SDS011;23688;33.130;-117.188;2023-08-17T10:30:22;27.40;;;16.17;;
37847;SDS011;23688;33.130;-117.188;2023-08-17T10:32:49;36.75;;;16.05;;
37847;SDS011;23688;33.130;-117.188;2023-08-17T10:35:15;35.60;;;17.60;;
37847;SDS011;23688;33.130;-117.188;2023-08-17T10:37:42;40.63;;;16.67;;
37847;SDS011;23688;33.130;-117.188;2023-08-17T10:40:09;46.67;;;17.70;;
37847;SDS011;23688;33.130;-117.188;2023-08-17T10:42:36;39.78;;;17.52;;
37847;SDS011;23688;33.130;-117.188;2023-08-17T10:45:25;40.80;;;19.10;;
37847;SDS011;23688;33.130;-117.188;2023-08-17T10:50:38;49.40;;;19.85;;
37847;SDS011;23688;33.130;-117.188;2023-08-17T10:53:08;46.38;;;19.60;;
37847;SDS011;23688;33.130;-117.188;2023-08-17T10:55:57;34.22;;;20.08;;
37847;SDS011;23688;33.130;-117.188;2023-08-17T10:58:23;38.97;;;17.83;;
37847;SDS011;23688;33.130;-117.188;2023-08-17T11:00:53;38.25;;;18.55;;
37847;SDS011;23688;33.130;-117.188;2023-08-17T11:03:22;31.75;;;17.23;;
37847;SDS011;23688;33.130;-117.188;2023-08-17T11:08:33;37.30;;;18.75;;
37847;SDS011;23688;33.130;-117.188;2023-08-17T11:11:16;31.60;;;17.15;;
37847;SDS011;23688;33.130;-117.188;2023-08-17T11:13:47;33.83;;;17.83;;
37847;SDS011;23688;33.130;-117.188;2023-08-17T11:16:14;39.47;;;15.88;;
37847;SDS011;23688;33.130;-117.188;2023-08-17T11:18:43;30.38;;;15.85;;
37847;SDS011;23688;33.130;-117.188;2023-08-17T11:21:10;30.38;;;16.35;;
37847;SDS011;23688;33.130;-117.188;2023-08-17T11:23:40;30.38;;;16.58;;
37847;SDS011;23688;33.130;-117.188;2023-08-17T11:26:07;32.88;;;15.85;;
37847;SDS011;23688;33.130;-117.188;2023-08-17T11:28:33;34.65;;;17.15;;
37847;SDS011;23688;33.130;-117.188;2023-08-17T11:31:06;37.95;;;16.92;;
37847;SDS011;23688;33.130;-117.188;2023-08-17T11:33:36;37.28;;;16.92;;
37847;SDS011;23688;33.130;-117.188;2023-08-17T11:36:06;30.58;;;17.05;;
37847;SDS011;23688;33.130;-117.188;2023-08-17T11:38:33;30.13;;;16.58;;
37847;SDS011;23688;33.130;-117.188;2023-08-17T11:41:04;27.90;;;14.93;;
37847;SDS011;23688;33.130;-117.188;2023-08-17T11:43:34;31.48;;;17.33;;
37847;SDS011;23688;33.130;-117.188;2023-08-17T11:46:01;32.65;;;16.17;;
37847;SDS011;23688;33.130;-117.188;2023-08-17T11:48:28;30.50;;;15.85;;
37847;SDS011;23688;33.130;-117.188;2023-08-17T11:50:54;31.42;;;16.25;;
37847;SDS011;23688;33.130;-117.188;2023-08-17T11:53:21;35.30;;;16.48;;
37847;SDS011;23688;33.130;-117.188;2023-08-17T11:55:48;28.13;;;15.10;;
37847;SDS011;23688;33.130;-117.188;2023-08-17T11:58:14;30.52;;;16.17;;
37847;SDS011;23688;33.130;-117.188;2023-08-17T12:00:43;30.27;;;16.30;;
37847;SDS011;23688;33.130;-117.188;2023-08-17T12:03:12;30.20;;;15.30;;
37847;SDS011;23688;33.130;-117.188;2023-08-17T12:05:45;32.97;;;16.70;;
37847;SDS011;23688;33.130;-117.188;2023-08-17T12:08:12;35.45;;;18.02;;
37847;SDS011;23688;33.130;-117.188;2023-08-17T12:10:40;33.60;;;18.77;;
37847;SDS011;23688;33.130;-117.188;2023-08-17T12:13:06;37.53;;;20.35;;
37847;SDS011;23688;33.130;-117.188;2023-08-17T12:15:38;31.15;;;18.25;;
37847;SDS011;23688;33.130;-117.188;2023-08-17T12:18:05;35.70;;;18.40;;
37847;SDS011;23688;33.130;-117.188;2023-08-17T12:20:34;32.75;;;17.95;;
37847;SDS011;23688;33.130;-117.188;2023-08-17T12:23:03;32.20;;;17.55;;
37847;SDS011;23688;33.130;-117.188;2023-08-17T12:25:31;32.58;;;19.63;;
37847;SDS011;23688;33.130;-117.188;2023-08-17T12:27:58;34.83;;;16.95;;
37847;SDS011;23688;33.130;-117.188;2023-08-17T12:30:29;36.95;;;19.75;;
37847;SDS011;23688;33.130;-117.188;2023-08-17T12:32:58;38.30;;;19.33;;
37847;SDS011;23688;33.130;-117.188;2023-08-17T12:35:25;38.28;;;19.70;;
37847;SDS011;23688;33.130;-117.188;2023-08-17T12:37:52;34.65;;;18.65;;
37847;SDS011;23688;33.130;-117.188;2023-08-17T12:40:19;42.63;;;20.05;;
37847;SDS011;23688;33.130;-117.188;2023-08-17T12:42:45;35.28;;;19.92;;
37847;SDS011;23688;33.130;-117.188;2023-08-17T12:45:12;41.28;;;20.83;;
37847;SDS011;23688;33.130;-117.188;2023-08-17T12:47:39;40.33;;;19.63;;
37847;SDS011;23688;33.130;-117.188;2023-08-17T12:50:05;34.80;;;19.50;;
37847;SDS011;23688;33.130;-117.188;2023-08-17T12:52:32;45.40;;;21.45;;
37847;SDS011;23688;33.130;-117.188;2023-08-17T12:55:00;45.50;;;21.70;;
37847;SDS011;23688;33.130;-117.188;2023-08-17T12:57:27;36.75;;;22.00;;
37847;SDS011;23688;33.130;-117.188;2023-08-17T12:59:53;34.15;;;20.52;;
37847;SDS011;23688;33.130;-117.188;2023-08-17T13:02:20;34.85;;;20.52;;
37847;SDS011;23688;33.130;-117.188;2023-08-17T13:04:46;35.97;;;21.20;;
37847;SDS011;23688;33.130;-117.188;2023-08-17T13:07:13;32.22;;;19.88;;
37847;SDS011;23688;33.130;-117.188;2023-08-17T13:09:41;29.00;;;18.90;;
37847;SDS011;23688;33.130;-117.188;2023-08-17T13:12:07;25.88;;;17.98;;
37847;SDS011;23688;33.130;-117.188;2023-08-17T13:14:33;34.63;;;19.30;;
37847;SDS011;23688;33.130;-117.188;2023-08-17T13:17:00;30.77;;;17.52;;
37847;SDS011;23688;33.130;-117.188;2023-08-17T13:19:26;28.20;;;17.63;;
37847;SDS011;23688;33.130;-117.188;2023-08-17T13:21:52;28.17;;;17.50;;
37847;SDS011;23688;33.130;-117.188;2023-08-17T13:24:19;27.77;;;17.10;;
37847;SDS011;23688;33.130;-117.188;2023-08-17T13:26:45;28.23;;;17.02;;
37847;SDS011;23688;33.130;-117.188;2023-08-17T13:29:11;26.10;;;16.30;;
37847;SDS011;23688;33.130;-117.188;2023-08-17T13:31:37;23.63;;;16.08;;
37847;SDS011;23688;33.130;-117.188;2023-08-17T13:34:04;24.27;;;14.40;;
37847;SDS011;23688;33.130;-117.188;2023-08-17T13:36:30;21.83;;;15.30;;
37847;SDS011;23688;33.130;-117.188;2023-08-17T13:38:56;25.20;;;15.05;;
37847;SDS011;23688;33.130;-117.188;2023-08-17T13:41:23;26.83;;;14.43;;
37847;SDS011;23688;33.130;-117.188;2023-08-17T13:43:50;31.00;;;17.23;;
37847;SDS011;23688;33.130;-117.188;2023-08-17T13:46:16;27.13;;;16.13;;
37847;SDS011;23688;33.130;-117.188;2023-08-17T13:48:42;25.27;;;15.52;;
37847;SDS011;23688;33.130;-117.188;2023-08-17T13:51:09;30.70;;;16.77;;
37847;SDS011;23688;33.130;-117.188;2023-08-17T13:53:36;32.53;;;16.08;;
37847;SDS011;23688;33.130;-117.188;2023-08-17T13:56:03;25.88;;;15.10;;
37847;SDS011;23688;33.130;-117.188;2023-08-17T13:58:29;27.88;;;15.48;;
37847;SDS011;23688;33.130;-117.188;2023-08-17T14:00:56;29.23;;;14.80;;
37847;SDS011;23688;33.130;-117.188;2023-08-17T14:03:22;23.50;;;12.25;;